Time;durP1;ratioP1;P1;durP2;ratioP2;P2;SDS_P1;SDS_P2;PMS_P1;PMS_P2;Temp;Humidity;BMP_temperature;BMP_pressure;BME280_temperature;BME280_humidity;BME280_pressure;Samples;Min_cycle;Max_cycle;Signal;HPM_P1;HPM_P2
2024/01/28 00:00:00;;;;;;;1.20;1.20;;;4.50;99.90;;;;;;4971894;28;20204;-84
2024/01/28 00:02:27;;;;;;;0.77;0.77;;;4.50;99.90;;;;;;4978879;28;20195;-83
2024/01/28 00:04:55;;;;;;;12.82;1.70;;;4.50;99.90;;;;;;4974105;28;20215;-82
2024/01/28 00:07:21;;;;;;;0.50;0.50;;;4.50;99.90;;;;;;4982883;28;20270;-82
2024/01/28 00:09:48;;;;;;;1.08;1.08;;;4.50;99.90;;;;;;4955553;28;20230;-80
2024/01/28 00:12:18;;;;;;;1.65;1.60;;;4.50;99.90;;;;;;4963620;28;20530;-84
2024/01/28 00:14:45;;;;;;;0.93;0.93;;;4.40;99.90;;;;;;4968902;28;20561;-83
2024/01/28 00:17:11;;;;;;;0.50;0.50;;;4.50;99.90;;;;;;4972629;28;20207;-81
2024/01/28 00:19:39;;;;;;;3.70;1.63;;;4.50;99.90;;;;;;4963474;28;20241;-80
2024/01/28 00:22:06;;;;;;;1.27;1.20;;;4.50;99.90;;;;;;4969751;28;20207;-83
2024/01/28 00:24:33;;;;;;;24.85;1.98;;;4.40;99.90;;;;;;4968263;28;20211;-82
2024/01/28 00:27:00;;;;;;;0.50;0.50;;;4.40;99.90;;;;;;4971354;28;20206;-81
2024/01/28 00:29:29;;;;;;;1.13;1.13;;;4.40;99.90;;;;;;4975910;28;20206;-80
2024/01/28 00:31:56;;;;;;;1.58;1.48;;;4.40;99.90;;;;;;4985947;28;20199;-82
2024/01/28 00:34:25;;;;;;;8.70;2.92;;;4.40;99.90;;;;;;4985487;28;20293;-82
2024/01/28 00:36:53;;;;;;;1.95;1.65;;;4.40;99.90;;;;;;4984729;28;20485;-81
2024/01/28 00:39:21;;;;;;;1.40;1.30;;;4.30;99.90;;;;;;4967452;28;20203;-80
2024/01/28 00:41:48;;;;;;;0.40;0.40;;;4.30;99.90;;;;;;4966601;28;20206;-84
2024/01/28 00:44:16;;;;;;;0.90;0.90;;;4.30;99.90;;;;;;4980952;28;20277;-85
2024/01/28 00:46:43;;;;;;;0.68;0.68;;;4.30;99.90;;;;;;4974138;28;20196;-86
2024/01/28 00:49:11;;;;;;;1.40;1.35;;;4.30;99.90;;;;;;4970613;28;20219;-83
2024/01/28 00:51:38;;;;;;;0.52;0.52;;;4.30;99.90;;;;;;4996313;28;20238;-82
2024/01/28 00:54:06;;;;;;;1.70;1.58;;;4.30;99.90;;;;;;4976543;28;20255;-84
2024/01/28 00:56:33;;;;;;;2.55;2.35;;;4.20;99.90;;;;;;4987812;28;20206;-80
2024/01/28 00:59:00;;;;;;;7.25;0.93;;;4.30;99.90;;;;;;4969044;29;20207;-82
2024/01/28 01:01:27;;;;;;;0.60;0.60;;;4.20;99.90;;;;;;4981727;28;20202;-83
2024/01/28 01:03:54;;;;;;;0.40;0.40;;;4.20;99.90;;;;;;4989464;28;20368;-84
2024/01/28 01:06:21;;;;;;;2.25;1.77;;;4.20;99.90;;;;;;4975154;28;20460;-83
2024/01/28 01:08:48;;;;;;;0.40;0.40;;;4.20;99.90;;;;;;4965059;28;20260;-81
2024/01/28 01:11:16;;;;;;;0.80;0.80;;;4.20;99.90;;;;;;4984764;28;20199;-80
2024/01/28 01:13:43;;;;;;;0.55;0.55;;;4.20;99.90;;;;;;4963870;28;20236;-81
2024/01/28 01:16:10;;;;;;;0.80;0.80;;;4.10;99.90;;;;;;4978691;28;20210;-84
2024/01/28 01:18:36;;;;;;;1.50;1.48;;;4.20;99.90;;;;;;4978058;28;20227;-85
2024/01/28 01:21:04;;;;;;;0.60;0.60;;;4.10;99.90;;;;;;4980143;28;20218;-82
2024/01/28 01:23:31;;;;;;;1.23;1.23;;;4.00;99.90;;;;;;4978489;28;20500;-81
2024/01/28 01:25:58;;;;;;;0.88;0.88;;;3.90;99.90;;;;;;4982521;28;20199;-81
2024/01/28 01:28:31;;;;;;;1.30;1.00;;;3.90;99.90;;;;;;4984687;28;20385;-81
2024/01/28 01:31:02;;;;;;;2.05;1.95;;;3.80;99.90;;;;;;4977075;28;20194;-82
2024/01/28 01:33:29;;;;;;;1.30;1.20;;;3.70;99.90;;;;;;4968282;28;20227;-81
2024/01/28 01:35:57;;;;;;;1.02;1.02;;;3.70;99.90;;;;;;4954893;28;20206;-84
2024/01/28 01:38:24;;;;;;;0.93;0.93;;;3.60;99.90;;;;;;4977274;28;20234;-84
2024/01/28 01:40:51;;;;;;;0.68;0.68;;;3.40;99.90;;;;;;4983329;28;20199;-82
2024/01/28 01:43:18;;;;;;;1.70;1.63;;;3.50;99.90;;;;;;4980223;28;20526;-83
2024/01/28 01:45:45;;;;;;;0.50;0.50;;;3.40;99.90;;;;;;4987403;28;20195;-81
2024/01/28 01:48:13;;;;;;;0.75;0.75;;;3.40;99.90;;;;;;4986247;28;20199;-81
2024/01/28 01:50:41;;;;;;;1.15;1.15;;;3.40;99.90;;;;;;4986774;28;20203;-80
2024/01/28 01:53:09;;;;;;;1.60;1.60;;;3.20;99.90;;;;;;4978095;28;20199;-83
2024/01/28 01:55:39;;;;;;;0.40;0.40;;;3.10;99.90;;;;;;4967212;28;20270;-84
2024/01/28 01:58:08;;;;;;;0.80;0.80;;;3.10;99.90;;;;;;4956313;28;20258;-80
2024/01/28 02:00:36;;;;;;;0.93;0.93;;;3.00;99.90;;;;;;4973578;28;20226;-80
2024/01/28 02:03:04;;;;;;;0.88;0.88;;;2.90;99.90;;;;;;4974099;28;20480;-82
2024/01/28 02:05:31;;;;;;;5.97;2.97;;;2.60;99.90;;;;;;4963353;28;20425;-82
2024/01/28 02:07:58;;;;;;;0.40;0.40;;;2.40;99.90;;;;;;4976424;28;20421;-80
2024/01/28 02:10:26;;;;;;;2.15;1.98;;;2.50;99.90;;;;;;4974560;28;20214;-82
2024/01/28 02:12:53;;;;;;;2.05;1.95;;;2.50;99.90;;;;;;4974142;28;20321;-80
2024/01/28 02:15:20;;;;;;;1.90;1.75;;;2.60;99.90;;;;;;4979925;28;20227;-80
2024/01/28 02:17:47;;;;;;;1.35;1.30;;;2.50;99.90;;;;;;4978403;28;20210;-81
2024/01/28 02:20:16;;;;;;;0.70;0.70;;;2.60;99.90;;;;;;4976939;28;20267;-82
2024/01/28 02:22:43;;;;;;;3.42;1.17;;;2.60;99.90;;;;;;4962932;28;20203;-81
2024/01/28 02:25:10;;;;;;;1.90;1.80;;;2.60;99.90;;;;;;4952424;28;20511;-82
2024/01/28 02:27:40;;;;;;;0.60;0.60;;;2.60;99.90;;;;;;4974623;28;20200;-81
2024/01/28 02:30:07;;;;;;;0.47;0.47;;;2.50;99.90;;;;;;4970299;28;20206;-83
2024/01/28 02:32:34;;;;;;;2.88;2.67;;;2.50;99.90;;;;;;4980507;28;20392;-80
2024/01/28 02:35:01;;;;;;;0.47;0.47;;;2.60;99.90;;;;;;4974299;28;20282;-82
2024/01/28 02:37:28;;;;;;;0.50;0.50;;;2.60;99.90;;;;;;4979188;28;20210;-82
2024/01/28 02:39:55;;;;;;;0.40;0.40;;;2.60;99.90;;;;;;4979056;28;20235;-81
2024/01/28 02:42:22;;;;;;;0.70;0.70;;;2.60;99.90;;;;;;4970436;28;20215;-80
2024/01/28 02:44:49;;;;;;;1.80;1.58;;;2.60;99.90;;;;;;4977454;28;20269;-82
2024/01/28 02:47:16;;;;;;;1.80;1.70;;;2.50;99.90;;;;;;4981246;28;20214;-81
2024/01/28 02:49:43;;;;;;;4.30;2.13;;;2.40;99.90;;;;;;4973437;28;20206;-82
2024/01/28 02:52:10;;;;;;;1.42;1.40;;;2.40;99.90;;;;;;4968841;28;20212;-81
2024/01/28 02:54:37;;;;;;;0.70;0.70;;;2.40;99.90;;;;;;4975754;28;20261;-82
2024/01/28 02:57:04;;;;;;;0.60;0.60;;;2.50;99.90;;;;;;4973028;28;20200;-81
2024/01/28 02:59:31;;;;;;;0.95;0.95;;;2.50;99.90;;;;;;4980475;28;20199;-82
2024/01/28 03:01:59;;;;;;;15.55;2.78;;;2.50;99.90;;;;;;4979356;28;20207;-81
2024/01/28 03:04:27;;;;;;;3.90;2.15;;;2.50;99.90;;;;;;4977614;28;20440;-81
2024/01/28 03:06:54;;;;;;;0.50;0.50;;;2.60;99.90;;;;;;4991370;28;20582;-81
2024/01/28 03:09:20;;;;;;;2.95;2.65;;;2.60;99.90;;;;;;4977750;28;20257;-82
2024/01/28 03:11:48;;;;;;;2.20;2.10;;;2.60;99.90;;;;;;4973253;28;20242;-82
2024/01/28 03:14:15;;;;;;;36.10;2.10;;;2.60;99.90;;;;;;4971956;28;20211;-81
2024/01/28 03:16:42;;;;;;;0.70;0.70;;;2.60;99.90;;;;;;4972626;28;20231;-81
2024/01/28 03:19:08;;;;;;;0.55;0.55;;;2.40;99.90;;;;;;4974435;28;20586;-81
2024/01/28 03:21:36;;;;;;;12.80;3.08;;;2.30;99.90;;;;;;4968821;28;20211;-80
2024/01/28 03:24:03;;;;;;;2.05;1.30;;;2.10;99.90;;;;;;4969490;28;20203;-81
2024/01/28 03:26:33;;;;;;;0.85;0.85;;;2.00;99.90;;;;;;4950501;28;20211;-82
2024/01/28 03:29:03;;;;;;;1.55;1.48;;;1.90;99.90;;;;;;4972763;28;20479;-81
2024/01/28 03:31:30;;;;;;;1.30;1.30;;;1.90;99.90;;;;;;4973966;28;20203;-81
2024/01/28 03:33:57;;;;;;;0.93;0.93;;;1.70;99.90;;;;;;4971940;28;20258;-80
2024/01/28 03:36:24;;;;;;;1.20;1.20;;;1.50;99.90;;;;;;4977015;28;20203;-82
2024/01/28 03:38:53;;;;;;;0.60;0.60;;;1.40;99.90;;;;;;4950333;28;20207;-81
2024/01/28 03:41:20;;;;;;;2.28;2.00;;;1.30;99.90;;;;;;4966497;28;20218;-80
2024/01/28 03:43:47;;;;;;;1.95;1.85;;;1.30;99.90;;;;;;4981148;28;20215;-82
2024/01/28 03:46:14;;;;;;;1.80;1.70;;;1.20;99.90;;;;;;4977226;28;20204;-81
2024/01/28 03:48:41;;;;;;;0.90;0.90;;;1.10;99.90;;;;;;4977002;28;20488;-82
2024/01/28 03:51:09;;;;;;;0.40;0.40;;;1.10;99.90;;;;;;4976478;28;20230;-82
2024/01/28 03:53:38;;;;;;;0.73;0.73;;;1.10;99.90;;;;;;4975021;28;20214;-82
2024/01/28 03:56:06;;;;;;;11.23;1.83;;;1.20;99.90;;;;;;4965577;28;20268;-82
2024/01/28 03:58:33;;;;;;;0.80;0.80;;;1.30;99.90;;;;;;4952281;28;20697;-83
2024/01/28 04:01:00;;;;;;;16.60;2.88;;;1.30;99.90;;;;;;4990430;28;20249;-81
2024/01/28 04:03:27;;;;;;;1.92;1.83;;;1.50;99.90;;;;;;4974989;28;20241;-81
2024/01/28 04:05:54;;;;;;;0.80;0.80;;;1.60;99.90;;;;;;4982585;28;20203;-81
2024/01/28 04:08:21;;;;;;;3.08;1.55;;;1.70;99.90;;;;;;4984099;28;20210;-82
2024/01/28 04:10:48;;;;;;;8.93;2.67;;;1.70;99.90;;;;;;4978597;28;20364;-81
2024/01/28 04:13:15;;;;;;;1.45;1.38;;;1.80;99.90;;;;;;4956795;28;20269;-81
2024/01/28 04:15:44;;;;;;;2.65;2.45;;;1.80;99.90;;;;;;4975887;28;20223;-81
2024/01/28 04:18:11;;;;;;;2.60;2.50;;;1.70;99.90;;;;;;4966809;28;20207;-83
2024/01/28 04:20:38;;;;;;;2.97;2.35;;;1.90;99.90;;;;;;4973392;28;20258;-85
2024/01/28 04:23:05;;;;;;;0.40;0.40;;;1.90;99.90;;;;;;4978821;28;20230;-83
2024/01/28 04:25:32;;;;;;;1.45;1.35;;;1.80;99.90;;;;;;4980078;28;20563;-81
2024/01/28 04:28:01;;;;;;;0.40;0.40;;;1.80;99.90;;;;;;4964460;28;20503;-83
2024/01/28 04:30:28;;;;;;;1.58;1.40;;;1.80;99.90;;;;;;4966656;28;20211;-84
2024/01/28 04:32:55;;;;;;;1.30;1.17;;;1.80;99.90;;;;;;4980995;28;20392;-83
2024/01/28 04:35:22;;;;;;;3.58;2.88;;;1.60;99.90;;;;;;4982966;28;20269;-82
2024/01/28 04:37:49;;;;;;;0.88;0.85;;;1.50;99.90;;;;;;4980931;28;20263;-81
2024/01/28 04:40:16;;;;;;;1.45;1.33;;;1.40;99.90;;;;;;4992859;28;20242;-82
2024/01/28 04:42:43;;;;;;;1.02;1.02;;;1.30;99.90;;;;;;4979812;28;20245;-81
2024/01/28 04:45:11;;;;;;;2.03;1.90;;;1.40;99.90;;;;;;4974040;28;20242;-81
2024/01/28 04:47:38;;;;;;;1.63;1.63;;;1.40;99.90;;;;;;4962470;28;20211;-82
2024/01/28 04:50:06;;;;;;;1.45;1.35;;;1.30;99.90;;;;;;4980837;28;20210;-85
2024/01/28 04:52:34;;;;;;;1.90;1.80;;;1.30;99.90;;;;;;4976953;28;20200;-82
2024/01/28 04:55:01;;;;;;;2.15;2.05;;;1.40;99.90;;;;;;4981271;28;20266;-83
2024/01/28 04:57:28;;;;;;;1.30;1.20;;;1.40;99.90;;;;;;4985961;28;20211;-82
2024/01/28 04:59:55;;;;;;;2.08;1.98;;;1.40;99.90;;;;;;4986706;28;20207;-80
2024/01/28 05:02:22;;;;;;;3.55;2.42;;;1.40;99.90;;;;;;4963011;28;20278;-81
2024/01/28 05:04:49;;;;;;;0.70;0.70;;;1.60;99.90;;;;;;4983605;28;20237;-82
2024/01/28 05:07:17;;;;;;;1.90;1.83;;;1.60;99.90;;;;;;4972571;28;20226;-80
2024/01/28 05:09:44;;;;;;;1.25;1.25;;;1.70;99.90;;;;;;4975056;28;20239;-82
2024/01/28 05:12:11;;;;;;;0.70;0.70;;;1.80;99.90;;;;;;4957921;28;20219;-82
2024/01/28 05:14:41;;;;;;;7.40;2.03;;;1.90;99.90;;;;;;4974130;28;20277;-81
2024/01/28 05:17:08;;;;;;;1.20;1.15;;;2.00;99.90;;;;;;4978947;28;20247;-82
2024/01/28 05:19:35;;;;;;;3.38;1.52;;;2.00;99.90;;;;;;4985362;28;20262;-83
2024/01/28 05:22:04;;;;;;;2.38;2.28;;;2.00;99.90;;;;;;4989061;28;20237;-82
2024/01/28 05:24:31;;;;;;;3.28;3.08;;;2.00;99.90;;;;;;4960774;28;20211;-82
2024/01/28 05:26:58;;;;;;;1.77;1.70;;;2.10;99.90;;;;;;4980205;28;20205;-81
2024/01/28 05:29:26;;;;;;;1.88;1.77;;;2.10;99.90;;;;;;4952932;28;20211;-82
2024/01/28 05:31:53;;;;;;;2.72;1.58;;;2.00;99.90;;;;;;4974347;28;20203;-82
2024/01/28 05:34:20;;;;;;;0.82;0.82;;;2.10;99.90;;;;;;4969981;28;20302;-81
2024/01/28 05:36:49;;;;;;;0.80;0.80;;;2.10;99.90;;;;;;4977321;28;20213;-82
2024/01/28 05:39:19;;;;;;;0.85;0.85;;;2.10;99.90;;;;;;4986147;28;20187;-86
2024/01/28 05:41:47;;;;;;;10.13;3.80;;;2.00;99.90;;;;;;5010233;28;20202;-83
2024/01/28 05:44:16;;;;;;;2.88;2.78;;;2.10;99.90;;;;;;5016808;28;20214;-81
2024/01/28 05:46:44;;;;;;;3.80;1.83;;;2.10;99.90;;;;;;4999925;28;20270;-82
2024/01/28 05:49:12;;;;;;;0.40;0.40;;;2.10;99.90;;;;;;4981227;28;20198;-82
2024/01/28 05:51:39;;;;;;;0.80;0.80;;;2.00;99.90;;;;;;4974241;28;20206;-82
2024/01/28 05:54:06;;;;;;;7.85;3.25;;;2.10;99.90;;;;;;4969196;28;20775;-83
2024/01/28 05:56:34;;;;;;;0.60;0.60;;;2.00;99.90;;;;;;4956138;28;20278;-83
2024/01/28 05:59:00;;;;;;;1.23;1.17;;;2.10;99.90;;;;;;4972700;28;20202;-83
2024/01/28 06:01:27;;;;;;;1.00;1.00;;;2.10;99.90;;;;;;4966001;28;20207;-82
2024/01/28 06:03:55;;;;;;;1.15;1.10;;;2.10;99.90;;;;;;4973359;28;20199;-81
2024/01/28 06:06:21;;;;;;;1.10;1.10;;;2.10;99.90;;;;;;4975801;28;20322;-83
2024/01/28 06:08:49;;;;;;;0.80;0.80;;;2.10;99.90;;;;;;4992740;28;20202;-83
2024/01/28 06:11:16;;;;;;;0.60;0.60;;;2.20;99.90;;;;;;4980572;28;20231;-81
2024/01/28 06:13:43;;;;;;;0.50;0.50;;;2.20;99.90;;;;;;4979033;28;20208;-81
2024/01/28 06:16:10;;;;;;;0.75;0.75;;;2.20;99.90;;;;;;4974402;28;20228;-84
2024/01/28 06:18:43;;;;;;;1.05;1.02;;;2.20;99.90;;;;;;4975061;28;20206;-82
2024/01/28 06:21:11;;;;;;;0.60;0.60;;;2.20;99.90;;;;;;4985474;28;20242;-81
2024/01/28 06:23:38;;;;;;;1.08;1.08;;;2.20;99.90;;;;;;4973988;28;20199;-81
2024/01/28 06:26:05;;;;;;;0.40;0.40;;;2.10;99.90;;;;;;4948182;28;20196;-83
2024/01/28 06:28:32;;;;;;;2.03;1.92;;;2.20;99.90;;;;;;4977317;28;20294;-81
2024/01/28 06:30:59;;;;;;;1.13;1.13;;;2.20;99.90;;;;;;4985812;28;20205;-82
2024/01/28 06:33:26;;;;;;;1.65;1.55;;;2.10;99.90;;;;;;4977296;28;20212;-82
2024/01/28 06:35:53;;;;;;;2.67;2.22;;;2.20;99.90;;;;;;4983089;28;20261;-84
2024/01/28 06:38:20;;;;;;;1.55;1.48;;;2.20;99.90;;;;;;4988002;28;20203;-84
2024/01/28 06:40:47;;;;;;;1.55;1.50;;;2.30;99.90;;;;;;4976352;28;20262;-82
2024/01/28 06:43:14;;;;;;;1.17;1.17;;;2.30;99.90;;;;;;4960552;28;20222;-82
2024/01/28 06:45:44;;;;;;;0.80;0.80;;;2.20;99.90;;;;;;4971226;28;20211;-82
2024/01/28 06:48:11;;;;;;;4.10;3.17;;;2.20;99.90;;;;;;4979039;28;20210;-81
2024/01/28 06:50:38;;;;;;;1.08;1.08;;;2.20;99.90;;;;;;4981985;28;20384;-82
2024/01/28 06:53:05;;;;;;;0.68;0.68;;;2.20;99.90;;;;;;4974992;28;20234;-84
2024/01/28 06:55:32;;;;;;;0.60;0.60;;;2.30;99.90;;;;;;4965575;28;20238;-81
2024/01/28 06:58:00;;;;;;;0.50;0.50;;;2.30;99.90;;;;;;4951468;28;20207;-81
2024/01/28 07:00:27;;;;;;;3.40;3.20;;;2.50;99.90;;;;;;4971588;28;20200;-81
2024/01/28 07:02:54;;;;;;;1.45;1.45;;;2.50;99.90;;;;;;4974887;28;20274;-83
2024/01/28 07:05:22;;;;;;;4.68;4.32;;;2.50;99.90;;;;;;4980219;28;20251;-81
2024/01/28 07:07:49;;;;;;;0.50;0.50;;;2.60;99.90;;;;;;4968376;28;20204;-81
2024/01/28 07:10:16;;;;;;;2.30;1.50;;;2.60;99.90;;;;;;4969024;28;20239;-84
2024/01/28 07:12:43;;;;;;;0.40;0.40;;;2.60;99.90;;;;;;4979600;28;20212;-80
2024/01/28 07:15:10;;;;;;;0.50;0.50;;;2.60;99.90;;;;;;4969342;28;20409;-80
2024/01/28 07:17:37;;;;;;;0.82;0.65;;;2.70;99.90;;;;;;4957793;28;20226;-81
2024/01/28 07:20:05;;;;;;;3.00;2.25;;;2.80;99.90;;;;;;4983430;28;20270;-82
2024/01/28 07:22:32;;;;;;;2.42;2.35;;;2.80;99.90;;;;;;4991428;28;20321;-87
2024/01/28 07:24:59;;;;;;;4.53;3.05;;;2.80;99.90;;;;;;4985815;28;20208;-82
2024/01/28 07:27:26;;;;;;;1.02;1.02;;;2.90;99.90;;;;;;4989674;28;20219;-85
2024/01/28 07:29:53;;;;;;;0.70;0.70;;;2.90;99.90;;;;;;4999129;28;20202;-86
2024/01/28 07:32:20;;;;;;;11.07;1.35;;;3.00;99.90;;;;;;4979319;28;20203;-83
2024/01/28 07:34:47;;;;;;;1.27;1.23;;;3.10;99.90;;;;;;4976533;28;20269;-83
2024/01/28 07:37:14;;;;;;;0.90;0.90;;;3.20;99.90;;;;;;4984894;28;20209;-84
2024/01/28 07:39:41;;;;;;;0.70;0.70;;;3.30;99.90;;;;;;4982627;28;20234;-84
2024/01/28 07:42:08;;;;;;;0.80;0.80;;;3.20;99.90;;;;;;4974800;28;20228;-82
2024/01/28 07:44:37;;;;;;;6.22;2.85;;;3.30;99.90;;;;;;4972292;28;20211;-83
2024/01/28 07:47:04;;;;;;;0.70;0.70;;;3.40;99.90;;;;;;4960019;28;20265;-82
2024/01/28 07:49:31;;;;;;;1.48;1.48;;;3.50;99.90;;;;;;4976313;28;20246;-82
2024/01/28 07:51:58;;;;;;;0.77;0.77;;;3.70;99.90;;;;;;4973212;28;20226;-82
2024/01/28 07:54:26;;;;;;;1.92;1.75;;;4.10;99.90;;;;;;4972625;28;20212;-80
2024/01/28 07:56:55;;;;;;;2.22;2.13;;;4.40;99.90;;;;;;4971772;28;20261;-82
2024/01/28 07:59:23;;;;;;;0.57;0.57;;;4.00;99.90;;;;;;4957728;28;20207;-81
2024/01/28 08:01:50;;;;;;;4.88;2.65;;;3.90;99.90;;;;;;4969582;28;20274;-82
2024/01/28 08:04:17;;;;;;;1.55;1.55;;;4.00;99.90;;;;;;4971814;28;20262;-85
2024/01/28 08:06:44;;;;;;;2.20;2.10;;;4.00;99.90;;;;;;4947527;28;20206;-82
2024/01/28 08:09:11;;;;;;;0.75;0.75;;;4.40;99.90;;;;;;4971267;28;20289;-82
2024/01/28 08:11:43;;;;;;;1.08;1.08;;;4.30;99.90;;;;;;4979103;28;20262;-83
2024/01/28 08:14:10;;;;;;;1.85;1.30;;;4.20;99.90;;;;;;4981245;28;20335;-83
2024/01/28 08:16:37;;;;;;;2.15;0.98;;;4.20;99.90;;;;;;4973263;28;20248;-83
2024/01/28 08:19:08;;;;;;;1.60;1.50;;;4.20;99.90;;;;;;4979355;28;20211;-82
2024/01/28 08:21:36;;;;;;;1.08;1.08;;;4.10;99.90;;;;;;4971707;28;20745;-83
2024/01/28 08:24:04;;;;;;;1.27;1.27;;;4.10;99.90;;;;;;4975110;28;20214;-83
2024/01/28 08:26:31;;;;;;;0.60;0.60;;;4.00;99.90;;;;;;4967673;28;20319;-84
2024/01/28 08:28:58;;;;;;;0.80;0.80;;;4.10;99.90;;;;;;4972523;28;20230;-83
2024/01/28 08:31:25;;;;;;;0.50;0.50;;;4.30;99.90;;;;;;4970396;28;20283;-84
2024/01/28 08:33:52;;;;;;;2.30;2.15;;;4.20;99.90;;;;;;4971922;28;20222;-86
2024/01/28 08:36:20;;;;;;;1.08;1.08;;;4.30;99.90;;;;;;4983356;28;20226;-87
2024/01/28 08:38:47;;;;;;;0.88;0.88;;;4.40;99.90;;;;;;4979713;28;20211;-82
2024/01/28 08:41:15;;;;;;;2.75;1.15;;;4.40;99.90;;;;;;4972913;28;20286;-83
2024/01/28 08:43:44;;;;;;;0.82;0.82;;;4.50;99.90;;;;;;4979995;28;20227;-82
2024/01/28 08:46:11;;;;;;;1.35;1.35;;;4.60;99.90;;;;;;4968152;28;20214;-82
2024/01/28 08:48:38;;;;;;;0.95;0.95;;;4.70;99.90;;;;;;4962011;28;20234;-83
2024/01/28 08:51:06;;;;;;;6.78;2.75;;;4.60;99.90;;;;;;4981773;28;20259;-83
2024/01/28 08:53:33;;;;;;;1.48;1.42;;;4.50;99.90;;;;;;4971208;28;20810;-80
2024/01/28 08:56:00;;;;;;;1.35;1.35;;;4.40;99.90;;;;;;4954008;28;20285;-82
2024/01/28 08:58:27;;;;;;;0.60;0.60;;;4.60;99.90;;;;;;4974819;28;20275;-82
2024/01/28 09:00:54;;;;;;;0.60;0.60;;;5.90;99.90;;;;;;4962235;28;20230;-80
2024/01/28 09:03:21;;;;;;;1.50;1.50;;;7.90;99.90;;;;;;4973475;28;20241;-84
2024/01/28 09:05:48;;;;;;;3.25;2.97;;;8.80;99.90;;;;;;4961862;28;20195;-84
2024/01/28 09:08:15;;;;;;;0.80;0.80;;;8.60;99.90;;;;;;4953177;28;20231;-82
2024/01/28 09:10:42;;;;;;;0.80;0.80;;;7.80;99.90;;;;;;4966872;28;20497;-83
2024/01/28 09:13:09;;;;;;;0.80;0.80;;;7.50;99.90;;;;;;4958377;28;20221;-82
2024/01/28 09:15:37;;;;;;;0.60;0.60;;;7.80;99.90;;;;;;4961266;28;20258;-82
2024/01/28 09:18:04;;;;;;;0.70;0.70;;;6.90;99.90;;;;;;4962735;28;20494;-81
2024/01/28 09:20:31;;;;;;;0.50;0.50;;;5.90;99.90;;;;;;4983324;28;20257;-80
2024/01/28 09:22:58;;;;;;;0.60;0.60;;;5.50;99.90;;;;;;4981799;28;20452;-83
2024/01/28 09:25:28;;;;;;;0.50;0.50;;;5.30;99.90;;;;;;4957072;28;20270;-83
2024/01/28 09:27:55;;;;;;;1.50;1.40;;;5.30;99.90;;;;;;4953120;28;20217;-80
2024/01/28 09:30:22;;;;;;;0.50;0.50;;;5.30;99.90;;;;;;4974056;28;20202;-81
2024/01/28 09:32:50;;;;;;;1.17;1.17;;;5.20;99.90;;;;;;4969288;28;20207;-80
2024/01/28 09:35:17;;;;;;;0.50;0.50;;;5.00;99.90;;;;;;4961465;28;20262;-82
2024/01/28 09:37:46;;;;;;;1.20;1.02;;;5.10;99.90;;;;;;4981229;28;20514;-83
2024/01/28 09:40:14;;;;;;;0.50;0.50;;;5.00;99.90;;;;;;4974323;28;20389;-81
2024/01/28 09:42:59;;;;;;;3.10;1.25;;;5.10;99.90;;;;;;4955214;28;20324;-82
2024/01/28 09:45:27;;;;;;;0.70;0.70;;;5.10;99.90;;;;;;4962197;28;20220;-83
2024/01/28 09:47:55;;;;;;;2.38;2.13;;;5.10;99.90;;;;;;4977827;28;20526;-83
2024/01/28 09:50:22;;;;;;;0.60;0.50;;;5.10;99.90;;;;;;4982502;28;20402;-81
2024/01/28 09:52:49;;;;;;;0.80;0.80;;;5.20;99.90;;;;;;4962019;28;20239;-82
2024/01/28 09:55:16;;;;;;;0.60;0.60;;;5.20;99.90;;;;;;4960497;28;20249;-81
2024/01/28 09:57:44;;;;;;;1.23;1.23;;;5.30;99.90;;;;;;4971869;28;20267;-83
2024/01/28 10:00:13;;;;;;;0.50;0.50;;;5.30;99.90;;;;;;4994992;28;20250;-84
2024/01/28 10:02:40;;;;;;;0.98;0.98;;;5.40;99.90;;;;;;5005904;28;20211;-81
2024/01/28 10:05:11;;;;;;;1.80;1.80;;;5.40;99.90;;;;;;4971507;28;20294;-80
2024/01/28 10:07:50;;;;;;;0.50;0.50;;;5.50;99.90;;;;;;4962613;28;20344;-80
2024/01/28 10:10:18;;;;;;;1.73;1.63;;;5.50;99.90;;;;;;4983657;28;20232;-80
2024/01/28 10:12:47;;;;;;;0.80;0.80;;;5.60;99.90;;;;;;4967206;28;20225;-84
2024/01/28 10:15:16;;;;;;;0.50;0.50;;;5.70;99.90;;;;;;4999276;28;20204;-78
2024/01/28 10:17:48;;;;;;;1.38;1.27;;;5.80;99.90;;;;;;4995883;28;20227;-83
2024/01/28 10:20:17;;;;;;;1.33;1.27;;;5.60;99.90;;;;;;4997427;28;20270;-85
2024/01/28 10:22:44;;;;;;;0.57;0.57;;;5.70;99.90;;;;;;4984576;28;20544;-82
2024/01/28 10:25:15;;;;;;;2.35;2.15;;;5.80;99.90;;;;;;4958032;28;20238;-83
2024/01/28 10:27:43;;;;;;;0.98;0.98;;;5.80;99.90;;;;;;4983870;28;20257;-83
2024/01/28 10:30:11;;;;;;;3.20;3.00;;;5.80;99.90;;;;;;4974306;28;20202;-83
2024/01/28 10:32:41;;;;;;;2.17;1.98;;;5.70;99.90;;;;;;4970816;28;20206;-83
2024/01/28 10:35:09;;;;;;;3.67;1.35;;;5.80;99.90;;;;;;4977990;28;20212;-83
2024/01/28 10:37:36;;;;;;;3.88;1.55;;;5.90;99.90;;;;;;4965993;28;20222;-82
2024/01/28 10:40:08;;;;;;;0.95;0.95;;;5.90;99.90;;;;;;4965212;28;20200;-83
2024/01/28 10:42:40;;;;;;;0.63;0.63;;;5.90;99.90;;;;;;4986021;28;20556;-82
2024/01/28 10:45:10;;;;;;;0.80;0.80;;;5.90;99.90;;;;;;4989629;28;20277;-82
2024/01/28 10:47:42;;;;;;;0.47;0.47;;;5.90;99.90;;;;;;5005833;28;20217;-81
2024/01/28 10:50:13;;;;;;;0.50;0.50;;;5.90;99.90;;;;;;4987251;28;20208;-82
2024/01/28 10:52:41;;;;;;;0.50;0.50;;;6.00;99.90;;;;;;4977017;28;20221;-81
2024/01/28 10:55:08;;;;;;;0.88;0.88;;;6.10;99.90;;;;;;4961130;28;20236;-81
2024/01/28 10:57:39;;;;;;;0.50;0.50;;;6.10;99.90;;;;;;4976419;28;20830;-81
2024/01/28 11:00:10;;;;;;;0.40;0.40;;;6.10;99.90;;;;;;4975222;28;20216;-82
2024/01/28 11:02:42;;;;;;;0.60;0.60;;;6.00;99.90;;;;;;4978817;28;20272;-84
2024/01/28 11:05:11;;;;;;;1.20;1.10;;;6.10;99.90;;;;;;4971893;28;20364;-81
2024/01/28 11:07:38;;;;;;;0.60;0.60;;;6.20;99.90;;;;;;4956613;28;20218;-83
2024/01/28 11:10:11;;;;;;;0.60;0.60;;;6.10;99.90;;;;;;4971328;28;20237;-83
2024/01/28 11:12:39;;;;;;;0.85;0.85;;;6.00;99.90;;;;;;4976125;28;20237;-83
2024/01/28 11:15:12;;;;;;;0.60;0.60;;;6.10;99.90;;;;;;4974547;28;20207;-81
2024/01/28 11:17:39;;;;;;;0.75;0.75;;;6.30;99.90;;;;;;4975665;28;20241;-82
2024/01/28 11:20:11;;;;;;;2.40;2.25;;;6.30;99.90;;;;;;4947831;28;20212;-81
2024/01/28 11:23:13;;;;;;;8.57;2.13;;;6.30;99.90;;;;;;4966869;28;20213;-83
2024/01/28 11:25:40;;;;;;;3.50;2.38;;;6.30;99.90;;;;;;4953873;29;20212;-82
2024/01/28 11:28:07;;;;;;;1.38;1.27;;;6.30;99.90;;;;;;4969668;28;20264;-83
2024/01/28 11:30:35;;;;;;;0.52;0.52;;;6.40;99.90;;;;;;4957704;28;20541;-82
2024/01/28 11:33:14;;;;;;;0.50;0.50;;;6.30;99.90;;;;;;4949163;28;20210;-82
2024/01/28 11:35:45;;;;;;;0.60;0.60;;;6.40;99.90;;;;;;4965076;28;20198;-82
2024/01/28 11:38:22;;;;;;;0.82;0.82;;;6.30;99.90;;;;;;4978595;28;20386;-84
2024/01/28 11:40:56;;;;;;;0.82;0.82;;;6.40;99.90;;;;;;4954817;28;20233;-81
2024/01/28 11:43:23;;;;;;;0.95;0.95;;;6.60;99.90;;;;;;4945256;28;20239;-82
2024/01/28 11:45:52;;;;;;;0.50;0.50;;;6.70;99.90;;;;;;4972311;28;20281;-81
2024/01/28 11:48:21;;;;;;;0.98;0.98;;;6.80;99.90;;;;;;4976355;28;20274;-81
2024/01/28 11:50:48;;;;;;;2.08;1.98;;;6.70;99.90;;;;;;4948585;28;20294;-83
2024/01/28 11:53:16;;;;;;;1.08;1.08;;;6.70;99.90;;;;;;4968451;28;20219;-82
2024/01/28 11:55:43;;;;;;;0.60;0.60;;;6.90;99.90;;;;;;4972466;28;20446;-83
2024/01/28 11:58:09;;;;;;;0.68;0.68;;;6.90;99.90;;;;;;4980822;28;20207;-81
2024/01/28 12:00:36;;;;;;;0.50;0.50;;;6.90;99.90;;;;;;4967902;28;20251;-82
2024/01/28 12:03:05;;;;;;;2.28;2.08;;;7.10;99.90;;;;;;4970007;28;20218;-82
2024/01/28 12:05:32;;;;;;;1.05;1.05;;;7.10;99.90;;;;;;4968933;28;20553;-83
2024/01/28 12:07:59;;;;;;;0.50;0.50;;;7.00;99.90;;;;;;4984320;28;20210;-82
2024/01/28 12:10:30;;;;;;;0.52;0.52;;;6.80;99.90;;;;;;4969580;28;20210;-83
2024/01/28 12:12:59;;;;;;;0.50;0.50;;;6.80;99.90;;;;;;4979291;28;20273;-81
2024/01/28 12:15:26;;;;;;;0.85;0.85;;;6.80;99.90;;;;;;4959591;28;20224;-83
2024/01/28 12:17:56;;;;;;;0.50;0.50;;;6.80;99.90;;;;;;4971397;28;20227;-82
2024/01/28 12:20:23;;;;;;;0.80;0.80;;;6.70;99.90;;;;;;4967256;28;20508;-81
2024/01/28 12:22:50;;;;;;;0.50;0.50;;;6.80;99.90;;;;;;4970894;28;20395;-81
2024/01/28 12:25:22;;;;;;;0.50;0.50;;;6.90;99.90;;;;;;4981163;28;20206;-83
2024/01/28 12:27:51;;;;;;;0.50;0.50;;;6.90;99.90;;;;;;4968656;28;20219;-82
2024/01/28 12:30:19;;;;;;;2.47;2.38;;;6.80;99.90;;;;;;4984159;28;20215;-83
2024/01/28 12:32:50;;;;;;;0.50;0.50;;;6.70;99.90;;;;;;4965938;28;20714;-84
2024/01/28 12:35:17;;;;;;;0.60;0.60;;;6.70;99.90;;;;;;4969822;28;20203;-81
2024/01/28 12:37:44;;;;;;;0.50;0.50;;;6.70;99.90;;;;;;4981631;28;20229;-82
2024/01/28 12:40:11;;;;;;;0.50;0.50;;;6.80;99.90;;;;;;4981830;28;20241;-83
2024/01/28 12:42:40;;;;;;;0.50;0.50;;;6.80;99.90;;;;;;4953537;28;20218;-83
2024/01/28 12:45:08;;;;;;;0.50;0.50;;;7.00;99.90;;;;;;4951102;28;20387;-83
2024/01/28 12:47:36;;;;;;;2.75;2.55;;;7.20;99.90;;;;;;4976106;28;20214;-84
2024/01/28 12:50:06;;;;;;;9.38;1.85;;;7.20;99.90;;;;;;4975775;28;20203;-82
2024/01/28 12:52:34;;;;;;;0.70;0.70;;;7.40;99.90;;;;;;4962592;28;20277;-82
2024/01/28 12:55:02;;;;;;;0.50;0.50;;;7.40;99.90;;;;;;4974224;28;20250;-83
2024/01/28 12:57:30;;;;;;;0.68;0.68;;;7.40;99.90;;;;;;4973235;28;20237;-82
2024/01/28 12:59:58;;;;;;;0.50;0.50;;;7.40;99.90;;;;;;4989573;28;20478;-84